Time;durP1;ratioP1;P1;durP2;ratioP2;P2;SDS_P1;SDS_P2;PMS_P1;PMS_P2;Temp;Humidity;BMP_temperature;BMP_pressure;BME280_temperature;BME280_humidity;BME280_pressure;Samples;Min_cycle;Max_cycle;Signal;HPM_P1;HPM_P2
2022/11/19 00:01:57;;;;;;;1.80;1.30;;;6.30;99.90;;;;;;5011873;28;20227;-72
2022/11/19 00:04:24;;;;;;;1.52;1.38;;;6.40;99.90;;;;;;5014002;28;20210;-72
2022/11/19 00:06:52;;;;;;;3.55;1.55;;;6.40;99.90;;;;;;5014199;28;20227;-71
2022/11/19 00:09:19;;;;;;;2.17;1.50;;;6.40;99.90;;;;;;5013736;28;20208;-71
2022/11/19 00:14:30;;;;;;;1.88;1.58;;;6.40;99.90;;;;;;5014222;28;20244;-72
2022/11/19 00:16:57;;;;;;;1.33;1.10;;;6.40;99.90;;;;;;5014272;28;20207;-72
2022/11/19 00:19:24;;;;;;;2.30;1.30;;;6.40;99.90;;;;;;5013347;28;20286;-71
2022/11/19 00:21:52;;;;;;;1.90;1.50;;;6.40;99.90;;;;;;5013382;28;20291;-71
2022/11/19 00:24:19;;;;;;;1.85;1.35;;;6.30;99.90;;;;;;5078262;22;20278;-67
2022/11/19 00:26:45;;;;;;;1.95;1.25;;;6.30;99.90;;;;;;5033016;28;20566;-68
2022/11/19 00:29:13;;;;;;;1.33;1.17;;;6.30;99.90;;;;;;5032853;28;20207;-69
2022/11/19 00:31:39;;;;;;;1.63;1.27;;;6.30;99.90;;;;;;5032681;28;20227;-69
2022/11/19 00:34:06;;;;;;;2.95;1.20;;;6.30;99.90;;;;;;5033140;28;20663;-70
2022/11/19 00:36:33;;;;;;;1.35;1.25;;;6.20;99.90;;;;;;5032593;28;20207;-70
2022/11/19 00:39:01;;;;;;;1.60;1.35;;;6.20;99.90;;;;;;5033130;28;20209;-69
2022/11/19 00:41:28;;;;;;;1.95;1.30;;;6.20;99.90;;;;;;5031965;28;20226;-70
2022/11/19 00:43:55;;;;;;;2.92;1.25;;;6.20;99.90;;;;;;5033094;28;20199;-70
2022/11/19 00:46:23;;;;;;;2.70;1.30;;;6.20;99.90;;;;;;5032450;28;20691;-70
2022/11/19 00:48:52;;;;;;;1.63;1.25;;;6.30;99.90;;;;;;5033798;28;20203;-69
2022/11/19 00:51:20;;;;;;;1.65;1.52;;;6.30;99.90;;;;;;5033263;28;20222;-70
2022/11/19 00:53:47;;;;;;;1.10;1.00;;;6.30;99.90;;;;;;5032519;28;20557;-69
2022/11/19 00:56:18;;;;;;;2.25;1.50;;;6.20;99.90;;;;;;5032846;28;20309;-70
2022/11/19 00:58:46;;;;;;;2.13;1.45;;;6.20;99.90;;;;;;5032901;28;20206;-69
2022/11/19 01:01:15;;;;;;;1.42;1.10;;;6.30;99.90;;;;;;5032071;28;20225;-69
2022/11/19 01:03:44;;;;;;;1.80;1.25;;;6.30;99.90;;;;;;5032470;28;20202;-69
2022/11/19 01:06:12;;;;;;;1.45;1.35;;;6.30;99.90;;;;;;5032721;28;20281;-70
2022/11/19 01:08:38;;;;;;;1.58;1.17;;;6.30;99.90;;;;;;5032485;28;20215;-69
2022/11/19 01:11:07;;;;;;;1.48;1.30;;;6.30;99.90;;;;;;5044968;28;20297;-70
2022/11/19 01:13:36;;;;;;;3.22;1.55;;;6.30;99.90;;;;;;5052298;28;20201;-69
2022/11/19 01:16:05;;;;;;;1.92;1.40;;;6.20;99.90;;;;;;5052270;28;20297;-70
2022/11/19 01:18:32;;;;;;;1.13;1.02;;;6.20;99.90;;;;;;5052304;28;20218;-69
2022/11/19 01:20:59;;;;;;;2.35;1.33;;;6.20;99.90;;;;;;5051401;28;20218;-70
2022/11/19 01:23:26;;;;;;;2.17;1.10;;;6.10;99.90;;;;;;5051746;28;20198;-69
2022/11/19 01:25:53;;;;;;;1.42;1.30;;;6.10;99.90;;;;;;5050526;28;20220;-69
2022/11/19 01:28:19;;;;;;;1.27;1.17;;;6.00;99.90;;;;;;5050423;28;20575;-71
2022/11/19 01:30:47;;;;;;;1.70;1.10;;;6.00;99.90;;;;;;5050011;28;20835;-69
2022/11/19 01:33:14;;;;;;;1.00;0.90;;;6.00;99.90;;;;;;5050237;28;20204;-70
2022/11/19 01:35:41;;;;;;;2.47;1.00;;;5.90;99.90;;;;;;5050521;28;20692;-70
2022/11/19 01:38:08;;;;;;;0.80;0.77;;;5.90;99.90;;;;;;5050401;28;20692;-71
2022/11/19 01:40:42;;;;;;;1.75;1.13;;;5.90;99.90;;;;;;5051061;28;20237;-70
2022/11/19 01:43:11;;;;;;;1.40;0.98;;;5.90;99.90;;;;;;5051523;28;20221;-69
2022/11/19 01:45:40;;;;;;;1.95;1.38;;;5.90;99.90;;;;;;5051463;28;20218;-69
2022/11/19 01:48:15;;;;;;;1.23;1.00;;;6.00;99.90;;;;;;5051894;28;20208;-70
2022/11/19 01:50:48;;;;;;;1.40;1.13;;;6.00;99.90;;;;;;5050516;28;20712;-69
2022/11/19 01:53:14;;;;;;;1.80;1.45;;;5.90;99.90;;;;;;5051638;28;20206;-70
2022/11/19 01:55:43;;;;;;;1.38;1.25;;;5.90;99.90;;;;;;5051216;28;20576;-70
2022/11/19 01:58:14;;;;;;;1.48;1.35;;;5.90;99.90;;;;;;5051648;28;20208;-69
2022/11/19 02:00:41;;;;;;;1.30;1.20;;;5.90;99.90;;;;;;5050336;28;20221;-70
2022/11/19 02:03:09;;;;;;;3.05;1.50;;;5.90;99.90;;;;;;5051407;28;20236;-69
2022/11/19 02:05:36;;;;;;;1.42;1.30;;;5.90;99.90;;;;;;5051221;28;20667;-69
2022/11/19 02:08:07;;;;;;;1.73;1.30;;;5.80;99.90;;;;;;5051183;28;20208;-70
2022/11/19 02:10:48;;;;;;;1.38;1.27;;;5.80;99.90;;;;;;5050582;28;20729;-70
2022/11/19 02:13:22;;;;;;;1.77;1.48;;;5.80;99.90;;;;;;5050822;28;20198;-69
2022/11/19 02:15:53;;;;;;;2.15;1.27;;;5.80;99.90;;;;;;5050722;28;20220;-69
2022/11/19 02:18:36;;;;;;;1.42;1.33;;;5.80;99.90;;;;;;5050956;28;20555;-69
2022/11/19 02:21:15;;;;;;;2.08;1.88;;;5.80;99.90;;;;;;5050830;28;20724;-70
2022/11/19 02:24:29;;;;;;;1.40;1.30;;;5.80;99.90;;;;;;5050561;28;20209;-69
2022/11/19 02:27:43;;;;;;;3.83;1.95;;;5.80;99.90;;;;;;5051073;28;20204;-70
2022/11/19 02:30:15;;;;;;;4.95;1.90;;;5.70;99.90;;;;;;5051236;28;20224;-70
2022/11/19 02:32:51;;;;;;;2.42;1.58;;;5.80;99.90;;;;;;5051362;28;20666;-70
2022/11/19 02:35:24;;;;;;;2.38;2.13;;;5.70;99.90;;;;;;5051516;28;20211;-70
2022/11/19 02:37:58;;;;;;;2.58;1.98;;;5.70;99.90;;;;;;5051099;28;20263;-70
2022/11/19 02:40:28;;;;;;;3.03;2.20;;;5.70;99.90;;;;;;5049852;28;20225;-70
2022/11/19 02:43:03;;;;;;;2.63;2.05;;;5.70;99.90;;;;;;5050947;28;20229;-70
2022/11/19 02:45:35;;;;;;;2.47;1.98;;;5.80;99.90;;;;;;5050698;28;20203;-69
2022/11/19 02:48:09;;;;;;;4.57;1.75;;;5.70;99.90;;;;;;5050769;28;20199;-70
2022/11/19 02:50:39;;;;;;;1.85;1.75;;;5.80;99.90;;;;;;5050300;28;20227;-70
2022/11/19 02:53:06;;;;;;;1.92;1.48;;;5.80;99.90;;;;;;5050391;28;20288;-69
2022/11/19 02:55:35;;;;;;;1.60;1.50;;;5.80;99.90;;;;;;5050718;28;20201;-70
2022/11/19 02:58:08;;;;;;;2.55;1.30;;;5.80;99.90;;;;;;5050540;28;20270;-69
2022/11/19 03:06:15;;;;;;;1.80;1.67;;;5.80;99.90;;;;;;5050894;28;20220;-70
2022/11/19 03:08:42;;;;;;;1.42;1.33;;;5.80;99.90;;;;;;5050831;28;20210;-70
2022/11/19 03:11:19;;;;;;;1.70;1.40;;;5.80;99.90;;;;;;5049953;28;20221;-69
2022/11/19 03:16:41;;;;;;;2.03;1.83;;;5.80;99.90;;;;;;5050457;28;20217;-68
2022/11/19 03:19:13;;;;;;;1.95;1.42;;;5.80;99.90;;;;;;5050677;28;20216;-70
2022/11/19 03:21:49;;;;;;;1.58;1.48;;;5.80;99.90;;;;;;5049463;28;20226;-69
2022/11/19 03:24:20;;;;;;;1.60;1.30;;;5.80;99.90;;;;;;5050238;28;20204;-69
2022/11/19 03:26:51;;;;;;;3.08;1.77;;;5.80;99.90;;;;;;5051630;28;20216;-69
2022/11/19 03:29:19;;;;;;;1.73;1.55;;;5.90;99.90;;;;;;5054422;28;20213;-68
2022/11/19 03:31:53;;;;;;;1.30;1.20;;;5.90;99.90;;;;;;5053885;28;20226;-70
2022/11/19 03:34:25;;;;;;;1.88;1.77;;;5.90;99.90;;;;;;5054105;28;20205;-69
2022/11/19 03:36:53;;;;;;;1.23;1.13;;;5.90;99.90;;;;;;5054459;28;20206;-69
2022/11/19 03:39:21;;;;;;;1.60;1.40;;;5.90;99.90;;;;;;5053697;28;20570;-70
2022/11/19 03:41:51;;;;;;;2.00;1.60;;;5.90;99.90;;;;;;5053648;28;20597;-69
2022/11/19 03:44:24;;;;;;;3.05;1.50;;;5.90;99.90;;;;;;5053908;28;20213;-69
2022/11/19 03:46:55;;;;;;;3.65;1.70;;;5.90;99.90;;;;;;5054228;28;20202;-69
2022/11/19 03:49:27;;;;;;;1.40;1.30;;;5.90;99.90;;;;;;5053642;28;20202;-69
2022/11/19 03:51:59;;;;;;;2.03;1.40;;;5.80;99.90;;;;;;5053500;28;20214;-70
2022/11/19 03:54:25;;;;;;;1.30;1.20;;;5.90;99.90;;;;;;5054215;28;20551;-70
2022/11/19 03:56:53;;;;;;;2.58;1.55;;;5.80;99.90;;;;;;5053639;28;20202;-70
2022/11/19 03:59:20;;;;;;;1.65;1.55;;;5.80;99.90;;;;;;5053782;28;20201;-70
2022/11/19 04:01:49;;;;;;;2.70;2.13;;;5.80;99.90;;;;;;5052806;28;20588;-69
2022/11/19 04:04:36;;;;;;;1.70;1.30;;;5.80;99.90;;;;;;5053578;28;20203;-70
2022/11/19 04:07:03;;;;;;;1.92;1.45;;;5.80;99.90;;;;;;5053477;28;20244;-68
2022/11/19 04:09:30;;;;;;;1.48;1.33;;;5.90;99.90;;;;;;5053165;28;20224;-70
2022/11/19 04:11:57;;;;;;;2.63;1.55;;;5.90;99.90;;;;;;5052894;28;20245;-69
2022/11/19 04:14:24;;;;;;;1.50;1.40;;;5.90;99.90;;;;;;5053391;28;20198;-69
2022/11/19 04:16:51;;;;;;;2.30;1.75;;;5.90;99.90;;;;;;5054223;28;20221;-70
2022/11/19 04:19:19;;;;;;;1.60;1.50;;;6.00;99.90;;;;;;5052981;28;20205;-70
2022/11/19 04:21:46;;;;;;;2.00;1.38;;;6.00;99.90;;;;;;5052735;28;20225;-70
2022/11/19 04:24:12;;;;;;;1.52;1.40;;;5.90;99.90;;;;;;5052994;28;20216;-70
2022/11/19 04:26:39;;;;;;;1.50;1.33;;;5.90;99.90;;;;;;5053535;28;20229;-70
2022/11/19 04:29:06;;;;;;;2.20;1.38;;;6.00;99.90;;;;;;5053146;28;20202;-69
2022/11/19 04:31:33;;;;;;;2.60;1.33;;;6.00;99.90;;;;;;5052222;28;20245;-70
2022/11/19 04:33:59;;;;;;;2.20;1.50;;;6.00;99.90;;;;;;5053182;28;20198;-70
2022/11/19 04:36:28;;;;;;;1.65;1.45;;;6.00;99.90;;;;;;5052564;28;20297;-70
2022/11/19 04:38:54;;;;;;;2.05;1.50;;;6.10;99.90;;;;;;5052060;28;20201;-70
2022/11/19 04:41:21;;;;;;;1.77;1.55;;;6.00;99.90;;;;;;5051991;28;20226;-69
2022/11/19 04:43:48;;;;;;;1.65;1.55;;;6.00;99.90;;;;;;5053099;28;20640;-72
2022/11/19 04:46:14;;;;;;;2.15;1.55;;;6.00;99.90;;;;;;5053220;28;20226;-70
2022/11/19 04:48:41;;;;;;;1.92;1.70;;;6.00;99.90;;;;;;5052775;28;20672;-69
2022/11/19 04:51:08;;;;;;;2.22;2.00;;;6.00;99.90;;;;;;5052292;28;20225;-69
2022/11/19 04:53:36;;;;;;;1.33;1.15;;;5.90;99.90;;;;;;5052556;28;20202;-70
2022/11/19 04:56:03;;;;;;;1.60;1.50;;;5.90;99.90;;;;;;5053126;28;20577;-69
2022/11/19 04:58:30;;;;;;;2.15;1.83;;;5.90;99.90;;;;;;5052673;28;20211;-70
2022/11/19 05:00:56;;;;;;;1.75;1.65;;;5.90;99.90;;;;;;5052873;28;20228;-70
2022/11/19 05:03:23;;;;;;;3.15;2.15;;;5.90;99.90;;;;;;5053307;28;20218;-70
2022/11/19 05:05:50;;;;;;;1.92;1.73;;;5.90;99.90;;;;;;5053363;28;20213;-70
2022/11/19 05:08:16;;;;;;;1.60;1.50;;;6.00;99.90;;;;;;5051854;28;20202;-69
2022/11/19 05:10:45;;;;;;;1.80;1.50;;;6.00;99.90;;;;;;5048322;28;20923;-70
2022/11/19 05:13:12;;;;;;;2.15;1.80;;;5.90;99.90;;;;;;5049676;28;20194;-70
2022/11/19 05:15:38;;;;;;;1.58;1.48;;;6.00;99.90;;;;;;5049443;28;20683;-70
2022/11/19 05:18:06;;;;;;;1.88;1.77;;;6.00;99.90;;;;;;5049796;28;20205;-70
2022/11/19 05:20:32;;;;;;;1.75;1.65;;;6.00;99.90;;;;;;5048808;28;20529;-70
2022/11/19 05:23:00;;;;;;;2.17;1.90;;;5.90;99.90;;;;;;5049314;28;20218;-70
2022/11/19 05:25:27;;;;;;;1.50;1.40;;;6.00;99.90;;;;;;5052074;28;20209;-70
2022/11/19 05:27:55;;;;;;;2.10;1.90;;;5.90;99.90;;;;;;5052100;28;20221;-70
2022/11/19 05:30:22;;;;;;;2.15;1.80;;;5.90;99.90;;;;;;5051124;28;20911;-69
2022/11/19 05:32:49;;;;;;;1.83;1.50;;;6.00;99.90;;;;;;5051826;28;20203;-70
2022/11/19 05:35:15;;;;;;;2.97;2.13;;;5.90;99.90;;;;;;5051743;28;20205;-69
2022/11/19 05:37:42;;;;;;;4.28;1.80;;;6.00;99.90;;;;;;5051579;28;20244;-70
2022/11/19 05:40:10;;;;;;;1.60;1.40;;;6.00;99.90;;;;;;5051823;28;20734;-69
2022/11/19 05:42:36;;;;;;;1.38;1.27;;;6.00;99.90;;;;;;5051121;28;20225;-69
2022/11/19 05:45:06;;;;;;;1.80;1.65;;;6.00;99.90;;;;;;5051743;28;20574;-70
2022/11/19 05:47:32;;;;;;;1.85;1.70;;;6.00;99.90;;;;;;5051726;28;20380;-70
2022/11/19 05:49:59;;;;;;;2.30;2.10;;;6.00;99.90;;;;;;5050167;28;20197;-69
2022/11/19 05:52:26;;;;;;;1.50;1.40;;;5.90;99.90;;;;;;5050940;28;20580;-69
2022/11/19 05:54:53;;;;;;;1.50;1.40;;;6.00;99.90;;;;;;5051501;28;20677;-69
2022/11/19 05:57:19;;;;;;;2.08;1.75;;;6.00;99.90;;;;;;5051006;28;20217;-70
2022/11/19 05:59:46;;;;;;;2.85;1.63;;;6.00;99.90;;;;;;5051370;28;20206;-70
2022/11/19 06:02:14;;;;;;;3.00;1.75;;;5.90;99.90;;;;;;5050480;28;20228;-70
2022/11/19 06:04:41;;;;;;;1.98;1.88;;;5.90;99.90;;;;;;5051193;28;20197;-70
2022/11/19 06:07:08;;;;;;;4.25;1.90;;;6.00;99.90;;;;;;5051355;28;20205;-70
2022/11/19 06:09:34;;;;;;;1.85;1.55;;;6.00;99.90;;;;;;5050484;28;20315;-70
2022/11/19 06:12:01;;;;;;;1.88;1.60;;;5.90;99.90;;;;;;5050853;28;20217;-70
2022/11/19 06:14:28;;;;;;;2.58;1.40;;;5.90;99.90;;;;;;5050701;28;20294;-70
2022/11/19 06:17:10;;;;;;;1.70;1.60;;;5.90;99.90;;;;;;5051072;28;20577;-70
2022/11/19 06:19:38;;;;;;;1.80;1.65;;;5.90;99.90;;;;;;5048767;28;20212;-69
2022/11/19 06:22:06;;;;;;;7.35;1.63;;;5.90;99.90;;;;;;5050395;28;20734;-69
2022/11/19 06:24:33;;;;;;;1.40;1.15;;;5.90;99.90;;;;;;5050939;28;20220;-70
2022/11/19 06:27:00;;;;;;;1.45;1.20;;;6.00;99.90;;;;;;5050895;28;20206;-69
2022/11/19 06:29:26;;;;;;;1.52;1.42;;;5.90;99.90;;;;;;5050914;28;20210;-69
2022/11/19 06:31:53;;;;;;;2.08;1.73;;;5.90;99.90;;;;;;5080155;22;20221;-94
2022/11/19 06:34:20;;;;;;;1.55;1.45;;;5.90;99.90;;;;;;5066425;28;20261;-93
2022/11/19 06:36:48;;;;;;;1.98;1.77;;;5.90;99.90;;;;;;5057652;28;20198;-91
2022/11/19 06:39:15;;;;;;;1.65;1.55;;;5.90;99.90;;;;;;5057856;28;20208;-95
2022/11/19 06:41:42;;;;;;;1.92;1.73;;;5.90;99.90;;;;;;5056579;28;20226;-94
2022/11/19 06:44:09;;;;;;;3.55;1.50;;;5.90;99.90;;;;;;5062497;22;20241;-72
2022/11/19 06:46:37;;;;;;;4.50;1.95;;;5.90;99.90;;;;;;5005280;28;20575;-72
2022/11/19 06:49:04;;;;;;;1.30;1.20;;;6.00;99.90;;;;;;5012048;28;20295;-72
2022/11/19 06:51:31;;;;;;;4.88;1.38;;;6.00;99.90;;;;;;5010883;28;20230;-72
2022/11/19 06:53:59;;;;;;;1.40;1.30;;;6.00;99.90;;;;;;5010735;28;20286;-73
2022/11/19 06:56:26;;;;;;;2.30;1.70;;;6.00;99.90;;;;;;5011219;28;20280;-72
2022/11/19 06:58:57;;;;;;;3.03;1.85;;;6.00;99.90;;;;;;5010721;28;20299;-72
2022/11/19 07:01:24;;;;;;;1.65;1.50;;;6.00;99.90;;;;;;5009708;28;20823;-71
2022/11/19 07:03:51;;;;;;;2.35;1.40;;;6.00;99.90;;;;;;5010267;28;20227;-72
2022/11/19 07:06:17;;;;;;;1.50;1.40;;;6.00;99.90;;;;;;5010219;28;20698;-72
2022/11/19 07:08:44;;;;;;;2.03;1.55;;;6.00;99.90;;;;;;5010543;28;20781;-71
2022/11/19 07:11:28;;;;;;;1.45;1.35;;;6.00;99.90;;;;;;5010016;28;20285;-72
2022/11/19 07:13:58;;;;;;;3.38;1.33;;;6.00;99.90;;;;;;5010960;28;20202;-71
2022/11/19 07:16:29;;;;;;;2.10;1.40;;;6.00;99.90;;;;;;5010964;28;20576;-72
2022/11/19 07:19:00;;;;;;;1.52;1.40;;;6.00;99.90;;;;;;5010470;28;20306;-72
2022/11/19 07:21:28;;;;;;;1.67;1.30;;;6.00;99.90;;;;;;5009912;28;20261;-72
2022/11/19 07:23:55;;;;;;;2.17;1.30;;;6.10;99.90;;;;;;5010263;28;20310;-72
2022/11/19 07:26:24;;;;;;;8.38;1.80;;;6.10;99.90;;;;;;5010709;28;20747;-71
2022/11/19 07:28:51;;;;;;;1.85;1.30;;;6.10;99.90;;;;;;5010761;28;20213;-72
2022/11/19 07:31:18;;;;;;;1.75;1.40;;;6.10;99.90;;;;;;5009964;28;20605;-71
2022/11/19 07:33:45;;;;;;;3.83;1.50;;;6.10;99.90;;;;;;5010394;28;20201;-72
2022/11/19 07:36:12;;;;;;;1.70;1.50;;;6.10;99.90;;;;;;5010040;28;20203;-71
2022/11/19 07:38:39;;;;;;;1.38;1.27;;;6.30;99.90;;;;;;5009792;28;20202;-72
2022/11/19 07:42:47;;;;;;;2.05;1.33;;;6.40;99.90;;;;;;5009695;28;20314;-72
2022/11/19 07:43:54;;;;;;;2.70;1.95;;;6.60;99.90;;;;;;5010198;28;20258;-72
2022/11/19 07:46:22;;;;;;;1.45;1.30;;;6.80;99.90;;;;;;5010575;28;20207;-72
2022/11/19 07:48:53;;;;;;;1.13;1.02;;;6.90;99.90;;;;;;5010160;28;20228;-71
2022/11/19 07:51:20;;;;;;;1.17;1.08;;;7.10;99.90;;;;;;5009852;28;20229;-73
2022/11/19 07:53:46;;;;;;;1.92;1.50;;;7.30;99.90;;;;;;5010098;28;20207;-72
2022/11/19 07:56:13;;;;;;;1.10;1.00;;;7.40;99.90;;;;;;5010244;28;20289;-72
2022/11/19 07:58:40;;;;;;;1.13;1.00;;;7.40;99.90;;;;;;5010425;28;20203;-71
2022/11/19 08:01:10;;;;;;;1.20;1.10;;;7.40;99.90;;;;;;5009454;28;20312;-70
2022/11/19 08:03:37;;;;;;;1.33;1.05;;;7.30;99.90;;;;;;5010336;28;20223;-71
2022/11/19 08:06:04;;;;;;;1.20;1.10;;;7.30;99.90;;;;;;5010083;28;20199;-69
2022/11/19 08:08:31;;;;;;;1.35;1.25;;;7.20;99.90;;;;;;5010460;28;20207;-71
2022/11/19 08:11:02;;;;;;;1.02;0.80;;;7.20;99.90;;;;;;5009272;28;20313;-70
2022/11/19 08:13:29;;;;;;;2.30;1.08;;;7.20;99.90;;;;;;5011188;28;20209;-71
2022/11/19 08:15:59;;;;;;;1.38;1.27;;;7.30;99.90;;;;;;5013841;28;20588;-70
2022/11/19 08:18:27;;;;;;;1.27;1.15;;;7.30;99.90;;;;;;5013799;28;20207;-71
2022/11/19 08:20:54;;;;;;;3.30;1.02;;;7.40;99.90;;;;;;5012977;28;20285;-72
2022/11/19 08:23:22;;;;;;;1.88;1.35;;;7.40;99.90;;;;;;5013726;28;20287;-71
2022/11/19 08:25:51;;;;;;;4.80;1.23;;;7.60;99.90;;;;;;5013499;28;20305;-71
2022/11/19 08:28:19;;;;;;;1.15;1.05;;;8.30;99.90;;;;;;5005477;28;20597;-72
2022/11/19 08:30:46;;;;;;;2.58;1.40;;;8.80;99.90;;;;;;4993591;28;20222;-72
2022/11/19 08:33:13;;;;;;;1.80;1.40;;;9.20;99.90;;;;;;5011472;28;20226;-70
2022/11/19 08:35:42;;;;;;;2.00;0.85;;;9.30;99.90;;;;;;5011905;28;20909;-72
2022/11/19 08:38:10;;;;;;;2.45;1.23;;;9.10;99.90;;;;;;5011583;28;20221;-72
2022/11/19 08:40:37;;;;;;;1.23;1.00;;;8.90;99.90;;;;;;4995266;28;20221;-72
2022/11/19 08:43:03;;;;;;;1.58;1.40;;;8.60;99.90;;;;;;5005423;28;20686;-70
2022/11/19 08:45:32;;;;;;;1.30;1.20;;;8.20;99.90;;;;;;5002286;28;20712;-70
2022/11/19 08:48:00;;;;;;;1.40;1.17;;;8.20;99.90;;;;;;4997650;28;20208;-72
2022/11/19 08:50:28;;;;;;;1.00;0.85;;;8.10;99.90;;;;;;5007314;28;20219;-71
2022/11/19 08:52:58;;;;;;;1.50;1.38;;;8.10;99.90;;;;;;5006452;28;20207;-72
2022/11/19 08:55:26;;;;;;;2.35;1.60;;;7.90;99.90;;;;;;5011991;28;20203;-71
2022/11/19 08:57:53;;;;;;;1.73;1.48;;;7.80;99.90;;;;;;5013613;28;20214;-72
2022/11/19 09:00:20;;;;;;;1.40;1.13;;;7.80;99.90;;;;;;5012202;28;20325;-71
2022/11/19 09:02:47;;;;;;;1.27;1.15;;;7.60;99.90;;;;;;5011551;28;20313;-72
2022/11/19 09:05:14;;;;;;;1.52;1.42;;;7.60;99.90;;;;;;5012054;28;20709;-72
2022/11/19 09:07:41;;;;;;;1.20;1.10;;;7.50;99.90;;;;;;5011457;28;20203;-72
2022/11/19 09:10:10;;;;;;;1.52;1.08;;;7.60;99.90;;;;;;5011909;28;20607;-71
2022/11/19 09:12:37;;;;;;;1.23;0.95;;;7.80;99.90;;;;;;5011920;28;20211;-72
2022/11/19 09:15:05;;;;;;;1.85;1.20;;;8.30;99.90;;;;;;5011614;28;20225;-72
2022/11/19 09:17:32;;;;;;;1.10;0.95;;;8.50;99.90;;;;;;5022670;28;20218;-71
2022/11/19 09:19:58;;;;;;;1.02;0.70;;;8.50;99.90;;;;;;5031485;28;20208;-73
2022/11/19 09:22:25;;;;;;;1.48;1.30;;;8.30;99.90;;;;;;5011745;28;20209;-73
2022/11/19 09:24:52;;;;;;;1.23;1.08;;;8.30;99.90;;;;;;5011553;28;20225;-72
2022/11/19 09:27:20;;;;;;;1.27;1.00;;;8.30;99.90;;;;;;5000867;28;20213;-70
2022/11/19 09:29:47;;;;;;;1.20;1.02;;;8.20;99.90;;;;;;5001922;28;20226;-72
2022/11/19 09:32:14;;;;;;;1.60;1.00;;;8.30;99.90;;;;;;5010866;28;20207;-72
2022/11/19 09:34:40;;;;;;;1.10;1.00;;;8.30;99.90;;;;;;5011309;28;20213;-72
2022/11/19 09:37:08;;;;;;;1.13;1.00;;;8.40;99.90;;;;;;5011541;28;20705;-72
2022/11/19 09:39:35;;;;;;;1.23;1.13;;;8.50;99.90;;;;;;5010662;28;20214;-72
2022/11/19 09:42:14;;;;;;;1.60;1.17;;;8.50;99.90;;;;;;5011161;28;20230;-72
2022/11/19 09:45:07;;;;;;;1.25;1.15;;;8.50;99.90;;;;;;5011416;28;20218;-71
2022/11/19 09:47:58;;;;;;;1.45;1.20;;;8.50;99.90;;;;;;4991283;28;20207;-73
2022/11/19 09:50:28;;;;;;;1.30;1.20;;;8.50;99.90;;;;;;4990737;28;20237;-73
2022/11/19 09:52:59;;;;;;;1.85;1.10;;;8.50;99.90;;;;;;4990690;28;20682;-72
2022/11/19 09:55:31;;;;;;;1.90;1.10;;;8.40;99.90;;;;;;4992165;28;20210;-72
2022/11/19 09:57:59;;;;;;;1.10;1.00;;;8.30;99.90;;;;;;4991881;28;20213;-73
2022/11/19 10:00:30;;;;;;;1.30;1.20;;;8.20;99.90;;;;;;4990740;28;20234;-73
2022/11/19 10:02:58;;;;;;;2.40;1.25;;;8.20;99.90;;;;;;4991940;28;20678;-72
2022/11/19 10:05:36;;;;;;;2.45;1.40;;;8.30;99.90;;;;;;4991060;28;20250;-72
2022/11/19 10:08:16;;;;;;;1.27;1.10;;;8.50;99.90;;;;;;4991691;28;20215;-73
2022/11/19 10:10:49;;;;;;;1.30;1.10;;;8.60;99.90;;;;;;4990815;28;20328;-73
2022/11/19 10:13:35;;;;;;;1.08;0.90;;;8.60;99.90;;;;;;4991016;28;20215;-73
2022/11/19 10:16:18;;;;;;;1.80;0.90;;;8.60;99.90;;;;;;4991251;28;20238;-73
2022/11/19 10:18:54;;;;;;;1.60;1.23;;;8.40;99.90;;;;;;4990973;28;20267;-73
2022/11/19 10:21:27;;;;;;;2.35;1.30;;;8.30;99.90;;;;;;4990103;28;20735;-73
2022/11/19 10:24:04;;;;;;;1.27;1.15;;;8.30;99.90;;;;;;4991235;28;20229;-73
2022/11/19 10:26:34;;;;;;;1.58;1.20;;;8.30;99.90;;;;;;4991246;28;20216;-73
2022/11/19 10:29:03;;;;;;;1.20;1.10;;;8.30;99.90;;;;;;4990518;28;20217;-73
2022/11/19 10:31:36;;;;;;;1.67;1.40;;;8.40;99.90;;;;;;4989897;28;20226;-73
2022/11/19 10:34:10;;;;;;;2.70;1.73;;;8.30;99.90;;;;;;4991101;28;20298;-74
2022/11/19 10:36:42;;;;;;;1.50;1.40;;;8.30;99.90;;;;;;4990089;28;20225;-72
2022/11/19 10:39:16;;;;;;;1.70;1.58;;;8.30;99.90;;;;;;4995164;28;20203;-73
2022/11/19 10:41:48;;;;;;;2.05;1.25;;;8.30;99.90;;;;;;5009119;28;20217;-72
2022/11/19 10:44:39;;;;;;;1.85;1.20;;;8.20;99.90;;;;;;5024451;28;20572;-72
2022/11/19 10:47:14;;;;;;;1.75;1.50;;;8.20;99.90;;;;;;5030257;28;20585;-72
2022/11/19 10:49:42;;;;;;;1.48;1.38;;;8.70;99.90;;;;;;5029148;28;20205;-72
2022/11/19 10:52:21;;;;;;;6.28;1.85;;;9.50;99.90;;;;;;5027917;28;20622;-72
2022/11/19 10:54:51;;;;;;;1.17;1.08;;;9.90;99.90;;;;;;5030065;28;20210;-75
2022/11/19 10:57:20;;;;;;;1.50;1.40;;;9.80;99.90;;;;;;5029858;28;20221;-74
2022/11/19 10:59:49;;;;;;;2.13;1.23;;;9.70;99.90;;;;;;5028738;28;20228;-74
2022/11/19 11:02:26;;;;;;;1.30;1.15;;;9.70;99.90;;;;;;5015993;28;20234;-74
2022/11/19 11:05:06;;;;;;;1.70;1.25;;;9.70;99.90;;;;;;5009011;28;20906;-74
2022/11/19 11:07:52;;;;;;;1.65;1.25;;;9.80;99.90;;;;;;5009514;28;20207;-74
2022/11/19 11:10:29;;;;;;;1.40;1.20;;;10.60;99.90;;;;;;4996350;28;20222;-74
2022/11/19 11:15:49;;;;;;;1.20;1.02;;;12.10;99.90;;;;;;5008548;28;20587;-74
2022/11/19 11:18:19;;;;;;;1.08;0.98;;;11.80;99.90;;;;;;5007958;28;20211;-74
2022/11/19 11:20:47;;;;;;;1.60;1.00;;;11.60;99.90;;;;;;4997204;28;20236;-74
2022/11/19 11:23:16;;;;;;;1.00;0.90;;;10.90;99.90;;;;;;4998738;28;20199;-74
2022/11/19 11:25:53;;;;;;;1.45;1.10;;;10.60;99.90;;;;;;5004051;28;20229;-74
2022/11/19 11:28:21;;;;;;;1.20;1.10;;;10.20;99.90;;;;;;5009829;28;20202;-73
2022/11/19 11:30:53;;;;;;;1.00;0.90;;;10.10;99.90;;;;;;5007350;28;20230;-73
2022/11/19 11:33:31;;;;;;;1.20;1.05;;;10.10;99.90;;;;;;5009384;28;20640;-72
2022/11/19 11:36:01;;;;;;;2.83;1.20;;;10.20;99.90;;;;;;5009352;28;20211;-73
2022/11/19 11:38:28;;;;;;;1.30;1.00;;;10.30;99.90;;;;;;5009912;28;20584;-74
2022/11/19 11:41:00;;;;;;;1.20;0.85;;;10.20;99.90;;;;;;5009163;28;20237;-74
2022/11/19 11:43:28;;;;;;;1.00;0.85;;;10.20;99.90;;;;;;5009951;28;20207;-74
2022/11/19 11:45:57;;;;;;;2.33;1.35;;;10.10;99.90;;;;;;5009570;28;20713;-74
2022/11/19 11:48:24;;;;;;;3.17;1.00;;;10.00;99.90;;;;;;5010614;28;20214;-74
2022/11/19 11:50:52;;;;;;;1.20;0.95;;;9.70;99.90;;;;;;5012750;28;20227;-74
2022/11/19 11:53:29;;;;;;;1.23;0.95;;;9.50;99.90;;;;;;5013235;28;20212;-74
2022/11/19 11:55:57;;;;;;;1.70;1.27;;;9.40;99.90;;;;;;5013603;28;20602;-74
2022/11/19 11:58:27;;;;;;;1.40;1.20;;;9.20;99.90;;;;;;5013898;28;20206;-74
2022/11/19 12:00:55;;;;;;;1.40;1.23;;;9.00;99.90;;;;;;5012822;28;20619;-72
2022/11/19 12:03:22;;;;;;;1.48;1.15;;;9.00;99.90;;;;;;5013879;28;20207;-74
2022/11/19 12:06:00;;;;;;;1.40;1.00;;;9.00;99.90;;;;;;5013276;28;20234;-74
2022/11/19 12:08:43;;;;;;;1.35;1.17;;;8.90;99.90;;;;;;5013007;28;20586;-74
2022/11/19 12:11:16;;;;;;;1.20;1.00;;;8.90;99.90;;;;;;5012765;28;20227;-73
2022/11/19 12:13:53;;;;;;;1.55;1.23;;;8.80;99.90;;;;;;5013022;28;20205;-73
2022/11/19 12:16:32;;;;;;;2.13;1.60;;;8.80;99.90;;;;;;5013837;28;20677;-73
2022/11/19 12:19:16;;;;;;;1.20;1.10;;;8.80;99.90;;;;;;5013451;28;20206;-73
2022/11/19 12:21:55;;;;;;;1.95;1.15;;;8.90;99.90;;;;;;5015351;28;20241;-73
2022/11/19 12:24:35;;;;;;;0.80;0.70;;;8.90;99.90;;;;;;4994021;28;20223;-73
2022/11/19 12:27:14;;;;;;;1.45;0.90;;;8.80;99.90;;;;;;4994106;28;20560;-73
2022/11/19 12:29:55;;;;;;;1.10;1.00;;;8.70;99.90;;;;;;4993772;28;20750;-73
2022/11/19 12:32:44;;;;;;;2.20;1.15;;;8.70;99.90;;;;;;5023988;22;20323;-65
2022/11/19 12:35:23;;;;;;;1.00;0.90;;;8.70;99.90;;;;;;5012901;28;20594;-65
2022/11/19 12:38:05;;;;;;;4.50;1.23;;;8.60;99.90;;;;;;5013602;28;20302;-67
2022/11/19 12:40:41;;;;;;;1.13;1.02;;;8.60;99.90;;;;;;5013136;28;20594;-67
2022/11/19 12:43:23;;;;;;;1.38;0.90;;;8.50;99.90;;;;;;5013495;28;20297;-66
2022/11/19 12:45:59;;;;;;;1.45;1.20;;;8.50;99.90;;;;;;5012975;28;20328;-66
2022/11/19 12:48:41;;;;;;;1.00;0.90;;;8.50;99.90;;;;;;5013547;28;20209;-66
2022/11/19 12:51:18;;;;;;;1.20;1.10;;;8.50;99.90;;;;;;5012028;28;20225;-66
2022/11/19 12:53:58;;;;;;;1.02;0.93;;;8.50;99.90;;;;;;5012307;28;20203;-66
2022/11/19 12:56:34;;;;;;;1.55;0.90;;;8.50;99.90;;;;;;5012960;28;20218;-66
2022/11/19 12:59:10;;;;;;;1.17;1.02;;;8.50;99.90;;;;;;5012436;28;20210;-67
2022/11/19 13:01:42;;;;;;;1.88;0.90;;;8.40;99.90;;;;;;5012083;28;20223;-67
2022/11/19 13:04:17;;;;;;;1.75;1.13;;;8.40;99.90;;;;;;5012817;28;20213;-67
2022/11/19 13:06:48;;;;;;;1.45;1.30;;;8.30;99.90;;;;;;5012749;28;20252;-67
2022/11/19 13:09:20;;;;;;;2.70;1.35;;;8.30;99.90;;;;;;5012865;28;20209;-65
2022/11/19 13:11:53;;;;;;;1.70;1.42;;;8.30;99.90;;;;;;5011909;28;20320;-67
2022/11/19 13:14:27;;;;;;;1.58;1.40;;;8.20;99.90;;;;;;5012990;28;20197;-66
2022/11/19 13:16:55;;;;;;;2.15;1.45;;;8.20;99.90;;;;;;5013752;28;20213;-66
2022/11/19 13:19:26;;;;;;;2.33;1.63;;;8.20;99.90;;;;;;5012368;28;20228;-67
2022/11/19 13:21:56;;;;;;;1.20;1.10;;;8.20;99.90;;;;;;5012167;28;20625;-66
2022/11/19 13:24:32;;;;;;;1.13;1.02;;;8.20;99.90;;;;;;5012520;28;20229;-65
2022/11/19 13:27:03;;;;;;;1.70;1.08;;;8.30;99.90;;;;;;5012751;28;20206;-65
2022/11/19 13:29:41;;;;;;;1.70;1.30;;;8.30;99.90;;;;;;5012321;28;20206;-64